Time;durP1;ratioP1;P1;durP2;ratioP2;P2;SDS_P1;SDS_P2;PMS_P1;PMS_P2;Temp;Humidity;BMP_temperature;BMP_pressure;BME280_temperature;BME280_humidity;BME280_pressure;Samples;Min_cycle;Max_cycle;Signal;HPM_P1;HPM_P2
2021/08/17 00:01:21;;;;;;;9.00;6.63;;;14.00;99.10;;;;;;5054831;28;20202;-77
2021/08/17 00:03:48;;;;;;;10.27;6.82;;;13.90;97.20;;;;;;5054323;28;20222;-77
2021/08/17 00:06:16;;;;;;;10.32;6.97;;;13.90;96.50;;;;;;5052845;28;20226;-77
2021/08/17 00:08:46;;;;;;;11.15;5.93;;;13.90;96.50;;;;;;5052381;28;20230;-77
2021/08/17 00:11:12;;;;;;;10.63;6.90;;;13.90;95.30;;;;;;5052559;28;20202;-78
2021/08/17 00:13:40;;;;;;;9.27;5.85;;;13.90;93.50;;;;;;5073259;28;20210;-78
2021/08/17 00:16:07;;;;;;;9.57;6.03;;;13.80;93.90;;;;;;5080866;28;20244;-76
2021/08/17 00:18:34;;;;;;;9.45;5.50;;;13.80;94.30;;;;;;5081131;28;20210;-76
2021/08/17 00:21:01;;;;;;;9.45;5.25;;;13.80;94.20;;;;;;5068243;28;20237;-78
2021/08/17 00:23:30;;;;;;;9.15;5.68;;;13.70;93.80;;;;;;5056786;28;20297;-78
2021/08/17 00:25:57;;;;;;;7.72;5.93;;;13.60;93.60;;;;;;5056565;28;20317;-77
2021/08/17 00:28:24;;;;;;;6.93;5.18;;;13.50;94.20;;;;;;5056136;28;20209;-77
2021/08/17 00:30:51;;;;;;;11.07;5.45;;;13.40;95.10;;;;;;5058791;28;20311;-77
2021/08/17 00:33:18;;;;;;;9.50;6.32;;;13.40;95.80;;;;;;5058628;28;20293;-78
2021/08/17 00:35:45;;;;;;;9.05;5.70;;;13.30;95.50;;;;;;5056689;28;20230;-78
2021/08/17 00:38:12;;;;;;;6.95;5.47;;;13.30;94.50;;;;;;5056682;28;20674;-77
2021/08/17 00:40:40;;;;;;;6.25;4.70;;;13.30;94.60;;;;;;5072508;28;20203;-76
2021/08/17 00:43:08;;;;;;;8.02;5.60;;;13.20;94.00;;;;;;5064839;28;20207;-78
2021/08/17 00:45:35;;;;;;;7.20;4.72;;;13.20;93.50;;;;;;5056135;28;20222;-78
2021/08/17 00:48:02;;;;;;;6.72;4.97;;;13.20;93.30;;;;;;5057151;28;20683;-78
2021/08/17 00:50:32;;;;;;;9.20;4.70;;;13.20;92.60;;;;;;5056724;28;20207;-77
2021/08/17 00:53:00;;;;;;;8.13;4.97;;;13.20;92.90;;;;;;5056763;28;20275;-77
2021/08/17 00:55:28;;;;;;;6.35;4.75;;;13.10;92.60;;;;;;5057220;28;20664;-77
2021/08/17 00:57:57;;;;;;;11.05;5.72;;;13.10;92.60;;;;;;5057956;28;20305;-77
2021/08/17 01:00:24;;;;;;;9.63;5.65;;;13.10;93.60;;;;;;5056415;28;20666;-76
2021/08/17 01:02:51;;;;;;;8.75;5.32;;;13.00;94.50;;;;;;5057356;28;20674;-77
2021/08/17 01:05:20;;;;;;;8.75;5.53;;;13.10;96.20;;;;;;5057600;28;20289;-77
2021/08/17 01:07:47;;;;;;;8.75;6.03;;;13.10;97.40;;;;;;5058334;28;20207;-77
2021/08/17 01:10:16;;;;;;;8.07;5.82;;;13.00;98.30;;;;;;5057747;28;20646;-77
2021/08/17 01:12:43;;;;;;;6.50;4.53;;;12.90;99.00;;;;;;5055418;28;20233;-77
2021/08/17 01:15:12;;;;;;;9.60;4.95;;;12.90;99.90;;;;;;5056158;28;20324;-77
2021/08/17 01:17:40;;;;;;;8.27;5.22;;;12.90;99.90;;;;;;5056165;28;20768;-77
2021/08/17 01:20:13;;;;;;;6.80;5.10;;;12.90;99.90;;;;;;5055752;28;20289;-77
2021/08/17 01:22:41;;;;;;;6.90;4.95;;;12.80;99.90;;;;;;5055957;28;20245;-77
2021/08/17 01:25:09;;;;;;;7.90;5.50;;;12.80;99.90;;;;;;5055903;28;20734;-77
2021/08/17 01:27:37;;;;;;;8.52;5.40;;;12.80;99.90;;;;;;5054604;28;20597;-76
2021/08/17 01:30:05;;;;;;;7.75;5.25;;;12.80;99.90;;;;;;5055175;28;20297;-77
2021/08/17 01:32:32;;;;;;;7.38;4.53;;;12.80;99.90;;;;;;5055435;28;20206;-78
2021/08/17 01:34:59;;;;;;;6.95;4.78;;;12.80;99.90;;;;;;5055078;28;20313;-78
2021/08/17 01:37:26;;;;;;;9.57;4.43;;;12.80;99.90;;;;;;5054780;28;20270;-77
2021/08/17 01:40:00;;;;;;;10.02;5.55;;;12.70;99.90;;;;;;5055130;28;20313;-78
2021/08/17 01:42:27;;;;;;;8.00;5.60;;;12.70;99.90;;;;;;5055476;28;20308;-78
2021/08/17 01:44:56;;;;;;;15.38;5.88;;;12.70;99.90;;;;;;5054864;28;20199;-77
2021/08/17 01:47:23;;;;;;;9.43;5.32;;;12.70;99.90;;;;;;5054883;28;20233;-77
2021/08/17 01:49:50;;;;;;;7.32;5.15;;;12.70;99.90;;;;;;5054222;28;20297;-77
2021/08/17 01:52:17;;;;;;;9.50;5.40;;;12.70;99.90;;;;;;5054277;28;20245;-77
2021/08/17 01:54:44;;;;;;;10.93;5.25;;;12.70;99.90;;;;;;5054462;28;20201;-77
2021/08/17 01:57:11;;;;;;;8.05;5.93;;;12.60;99.90;;;;;;5056241;28;20269;-77
2021/08/17 01:59:38;;;;;;;10.88;5.50;;;12.60;99.90;;;;;;5055490;28;20206;-77
2021/08/17 02:02:08;;;;;;;9.95;5.82;;;12.60;99.90;;;;;;5054711;28;20237;-77
2021/08/17 02:04:35;;;;;;;10.07;5.95;;;12.60;99.90;;;;;;5055538;28;20220;-77
2021/08/17 02:07:03;;;;;;;7.70;5.43;;;12.60;99.90;;;;;;5056557;28;20231;-77
2021/08/17 02:09:30;;;;;;;12.55;6.72;;;12.60;99.90;;;;;;5060787;28;20206;-77
2021/08/17 02:11:57;;;;;;;8.80;5.57;;;12.50;99.90;;;;;;5059105;28;20215;-79
2021/08/17 02:14:24;;;;;;;13.10;6.15;;;12.50;99.90;;;;;;5054963;28;20213;-77
2021/08/17 02:16:51;;;;;;;8.93;5.80;;;12.50;99.90;;;;;;5054755;28;20329;-77
2021/08/17 02:19:20;;;;;;;10.38;5.95;;;12.50;99.90;;;;;;5054316;28;20240;-77
2021/08/17 02:21:47;;;;;;;8.00;5.28;;;12.40;99.90;;;;;;5054557;28;20210;-77
2021/08/17 02:24:13;;;;;;;13.23;5.50;;;12.40;99.90;;;;;;5054229;28;20245;-77
2021/08/17 02:26:40;;;;;;;14.98;6.28;;;12.30;99.90;;;;;;5053822;28;20229;-77
2021/08/17 02:29:07;;;;;;;11.50;5.68;;;12.30;99.90;;;;;;5053627;28;20296;-78
2021/08/17 02:31:34;;;;;;;10.38;6.10;;;12.30;99.90;;;;;;5053898;28;20304;-77
2021/08/17 02:34:01;;;;;;;12.23;6.35;;;12.30;99.90;;;;;;5054073;28;20234;-77
2021/08/17 02:36:29;;;;;;;7.68;5.95;;;12.20;99.90;;;;;;5054228;28;20265;-78
2021/08/17 02:38:56;;;;;;;9.15;5.40;;;12.20;99.90;;;;;;5052530;28;20256;-77
2021/08/17 02:41:23;;;;;;;8.85;5.55;;;12.10;99.90;;;;;;5062137;28;20286;-77
2021/08/17 02:43:50;;;;;;;9.00;6.03;;;12.10;99.90;;;;;;5072191;28;20281;-77
2021/08/17 02:46:17;;;;;;;10.23;5.70;;;12.10;99.90;;;;;;5053859;28;20309;-78
2021/08/17 02:48:44;;;;;;;9.90;6.32;;;12.10;99.90;;;;;;5053398;28;20207;-79
2021/08/17 02:51:12;;;;;;;11.57;6.03;;;12.10;99.90;;;;;;5053340;28;20630;-77
2021/08/17 02:53:40;;;;;;;9.95;5.82;;;12.10;99.90;;;;;;5053485;28;20289;-78
2021/08/17 02:56:07;;;;;;;10.82;6.32;;;12.20;99.90;;;;;;5053920;28;20257;-78
2021/08/17 02:58:34;;;;;;;9.85;6.43;;;12.10;99.90;;;;;;5054993;28;20300;-77
2021/08/17 03:01:01;;;;;;;7.70;5.10;;;12.10;99.90;;;;;;5053824;28;20297;-78
2021/08/17 03:03:27;;;;;;;12.13;5.32;;;12.20;99.90;;;;;;5054826;28;20206;-78
2021/08/17 03:05:54;;;;;;;11.57;6.28;;;12.10;99.90;;;;;;5053372;28;20321;-78
2021/08/17 03:08:21;;;;;;;8.25;5.47;;;12.00;99.90;;;;;;5053047;28;20249;-78
2021/08/17 03:10:50;;;;;;;10.60;5.75;;;12.00;99.90;;;;;;5053502;28;20305;-78
2021/08/17 03:13:17;;;;;;;9.32;5.85;;;12.00;99.90;;;;;;5056807;28;20682;-78
2021/08/17 03:15:44;;;;;;;12.73;6.90;;;12.00;99.90;;;;;;5052738;28;20415;-77
2021/08/17 03:18:11;;;;;;;9.45;6.15;;;12.00;99.90;;;;;;5053397;28;20216;-78
2021/08/17 03:20:38;;;;;;;10.60;6.00;;;12.00;99.90;;;;;;5052936;28;20678;-77
2021/08/17 03:23:07;;;;;;;10.55;6.20;;;12.00;99.90;;;;;;5053282;28;20217;-77
2021/08/17 03:25:34;;;;;;;10.85;5.40;;;12.00;99.90;;;;;;5052897;28;20206;-77
2021/08/17 03:28:02;;;;;;;8.38;5.90;;;12.00;99.90;;;;;;5056026;28;20301;-77
2021/08/17 03:30:29;;;;;;;10.63;6.10;;;12.00;99.90;;;;;;5052683;28;20292;-78
2021/08/17 03:32:56;;;;;;;9.65;5.78;;;12.00;99.90;;;;;;5053323;28;20305;-78
2021/08/17 03:35:24;;;;;;;7.07;5.55;;;11.90;99.90;;;;;;5052681;28;20701;-78
2021/08/17 03:37:51;;;;;;;9.80;5.38;;;11.90;99.90;;;;;;5052810;28;20210;-77
2021/08/17 03:40:22;;;;;;;10.90;5.68;;;11.90;99.90;;;;;;5052340;28;20286;-78
2021/08/17 03:42:49;;;;;;;8.75;6.03;;;11.90;99.90;;;;;;5052753;28;20295;-78
2021/08/17 03:45:19;;;;;;;9.57;5.45;;;11.90;99.90;;;;;;5076502;28;20193;-78
2021/08/17 03:47:47;;;;;;;11.90;6.40;;;12.00;99.90;;;;;;5077305;28;20190;-77
2021/08/17 03:50:15;;;;;;;10.82;6.63;;;11.90;99.90;;;;;;5076938;28;20205;-77
2021/08/17 03:52:43;;;;;;;8.75;5.45;;;11.90;99.90;;;;;;5061832;28;20213;-77
2021/08/17 03:55:11;;;;;;;8.88;5.80;;;11.90;99.90;;;;;;5055316;28;20293;-78
2021/08/17 03:57:38;;;;;;;8.23;6.07;;;11.90;99.90;;;;;;5053682;28;20249;-78
2021/08/17 04:00:08;;;;;;;11.75;6.75;;;12.00;99.90;;;;;;5052819;28;20210;-78
2021/08/17 04:02:36;;;;;;;10.55;5.38;;;12.00;99.90;;;;;;5053565;28;20271;-78
2021/08/17 04:05:03;;;;;;;12.55;7.10;;;11.90;99.90;;;;;;5053468;28;20249;-77
2021/08/17 04:07:30;;;;;;;10.63;6.32;;;11.90;99.90;;;;;;5053366;28;20249;-78
2021/08/17 04:09:57;;;;;;;11.20;6.80;;;12.00;99.90;;;;;;5052915;28;20705;-78
2021/08/17 04:12:24;;;;;;;9.18;6.40;;;12.00;99.90;;;;;;5056036;28;20267;-76
2021/08/17 04:14:51;;;;;;;14.82;6.93;;;11.90;99.90;;;;;;5053538;28;20795;-78
2021/08/17 04:17:18;;;;;;;10.20;5.95;;;12.00;99.90;;;;;;5053050;28;20328;-78
2021/08/17 04:19:47;;;;;;;10.85;6.93;;;12.00;99.90;;;;;;5052627;28;20309;-77
2021/08/17 04:22:14;;;;;;;9.15;5.80;;;12.00;99.90;;;;;;5054749;28;20267;-77
2021/08/17 04:24:41;;;;;;;11.13;6.70;;;12.00;99.90;;;;;;5052571;28;20282;-77
2021/08/17 04:27:07;;;;;;;11.40;6.40;;;11.90;99.90;;;;;;5052243;28;20733;-78
2021/08/17 04:29:37;;;;;;;10.35;6.25;;;11.90;99.90;;;;;;5052193;28;20666;-76
2021/08/17 04:32:04;;;;;;;11.73;6.75;;;11.90;99.90;;;;;;5053912;28;20216;-77
2021/08/17 04:34:31;;;;;;;13.05;6.95;;;12.00;99.90;;;;;;5064992;28;20236;-77
2021/08/17 04:36:59;;;;;;;11.82;6.30;;;11.90;99.90;;;;;;5075915;28;20222;-77
2021/08/17 04:39:26;;;;;;;11.68;7.13;;;12.00;99.90;;;;;;5075084;28;20236;-78
2021/08/17 04:41:53;;;;;;;9.82;6.22;;;12.00;99.90;;;;;;5059231;28;20259;-77
2021/08/17 04:44:20;;;;;;;11.38;6.57;;;12.00;99.90;;;;;;5076693;28;20202;-78
2021/08/17 04:46:47;;;;;;;9.60;5.50;;;12.10;99.90;;;;;;5059239;28;20660;-77
2021/08/17 04:49:14;;;;;;;8.60;5.57;;;12.20;99.90;;;;;;5054631;28;20211;-77
2021/08/17 04:51:41;;;;;;;11.07;6.68;;;12.30;99.90;;;;;;5054357;28;20237;-77
2021/08/17 04:54:13;;;;;;;15.15;6.68;;;12.50;99.90;;;;;;5060552;28;20222;-78
2021/08/17 04:56:40;;;;;;;11.50;6.40;;;12.70;99.90;;;;;;5057685;28;20254;-77
2021/08/17 04:59:07;;;;;;;9.88;5.85;;;12.90;99.90;;;;;;5052377;28;20305;-77
2021/08/17 05:01:34;;;;;;;9.40;5.65;;;13.20;98.70;;;;;;5053890;28;20242;-77
2021/08/17 05:04:03;;;;;;;7.53;5.43;;;13.50;96.30;;;;;;5056099;28;20206;-77
2021/08/17 05:06:29;;;;;;;10.65;6.30;;;13.60;93.10;;;;;;5055915;28;20638;-77
2021/08/17 05:08:56;;;;;;;10.10;5.60;;;13.70;91.20;;;;;;5055676;28;20208;-77
2021/08/17 05:11:25;;;;;;;10.48;6.18;;;13.80;91.10;;;;;;5055516;28;20709;-77
2021/08/17 05:13:51;;;;;;;7.65;5.38;;;13.90;89.60;;;;;;5056080;28;20299;-77
2021/08/17 05:16:18;;;;;;;7.68;5.20;;;14.10;88.40;;;;;;5056055;28;20299;-77
2021/08/17 05:18:45;;;;;;;8.43;5.95;;;14.30;84.60;;;;;;5055816;28;20207;-77
2021/08/17 05:21:13;;;;;;;7.72;4.80;;;14.60;83.30;;;;;;5055693;28;20213;-77
2021/08/17 05:23:39;;;;;;;6.72;5.13;;;14.90;80.10;;;;;;5055477;28;20297;-77
2021/08/17 05:26:08;;;;;;;10.73;6.20;;;15.10;77.10;;;;;;5055445;28;20253;-78
2021/08/17 05:28:36;;;;;;;7.57;5.95;;;15.30;76.30;;;;;;5055562;28;20274;-76
2021/08/17 05:31:03;;;;;;;8.05;5.72;;;15.50;74.20;;;;;;5055221;28;20666;-77
2021/08/17 05:33:30;;;;;;;9.65;6.35;;;15.60;72.70;;;;;;5055526;28;20233;-78
2021/08/17 05:35:57;;;;;;;7.37;5.23;;;15.80;71.20;;;;;;5055186;28;20328;-77
2021/08/17 05:38:24;;;;;;;8.47;5.43;;;16.20;68.80;;;;;;5055028;28;20476;-78
2021/08/17 05:40:50;;;;;;;9.60;5.23;;;16.40;66.20;;;;;;5055211;28;20486;-78
2021/08/17 05:43:17;;;;;;;8.43;5.73;;;16.60;64.70;;;;;;5055360;28;20563;-78
2021/08/17 05:45:45;;;;;;;8.10;5.90;;;16.70;64.50;;;;;;5055623;28;20512;-78
2021/08/17 05:48:15;;;;;;;16.70;5.80;;;17.00;62.90;;;;;;5055016;28;20452;-78
2021/08/17 05:50:42;;;;;;;8.40;5.30;;;17.10;62.00;;;;;;5055301;28;20496;-77
2021/08/17 05:53:09;;;;;;;8.80;6.33;;;17.30;60.70;;;;;;5056055;28;20953;-77
2021/08/17 05:55:36;;;;;;;10.73;5.73;;;17.30;60.10;;;;;;5056092;28;20504;-79
2021/08/17 05:58:03;;;;;;;9.80;5.90;;;17.30;60.30;;;;;;5055290;28;21064;-77
2021/08/17 06:00:31;;;;;;;9.10;6.00;;;17.40;60.10;;;;;;5057139;28;20484;-77
2021/08/17 06:03:00;;;;;;;9.10;5.60;;;17.60;59.90;;;;;;5060248;28;20453;-77
2021/08/17 06:05:26;;;;;;;11.40;5.20;;;17.50;59.40;;;;;;5061509;28;20488;-77
2021/08/17 06:07:53;;;;;;;8.00;6.23;;;17.70;58.40;;;;;;5063501;28;20460;-77
2021/08/17 06:10:21;;;;;;;8.17;6.00;;;17.80;57.90;;;;;;5060549;28;20477;-77
2021/08/17 06:12:48;;;;;;;10.10;6.37;;;17.90;56.60;;;;;;5063488;28;20652;-77
2021/08/17 06:15:16;;;;;;;7.93;5.50;;;17.70;57.80;;;;;;5059469;28;20517;-77
2021/08/17 06:17:43;;;;;;;14.50;5.90;;;17.60;57.80;;;;;;5060887;28;20474;-77
2021/08/17 06:20:12;;;;;;;8.93;5.37;;;17.60;57.10;;;;;;5057549;28;20427;-77
2021/08/17 06:22:39;;;;;;;15.70;5.63;;;17.60;57.60;;;;;;5055775;28;20433;-77
2021/08/17 06:25:09;;;;;;;12.20;7.03;;;17.30;58.30;;;;;;5055345;28;21025;-77
2021/08/17 06:27:37;;;;;;;10.67;6.80;;;17.10;60.00;;;;;;5055378;28;20510;-78
2021/08/17 06:30:07;;;;;;;7.77;5.80;;;16.90;61.20;;;;;;5061894;28;20497;-77
2021/08/17 06:32:34;;;;;;;9.20;6.50;;;16.80;62.80;;;;;;5061433;28;20838;-78
2021/08/17 06:35:01;;;;;;;9.68;6.75;;;16.30;64.50;;;;;;5059351;28;20429;-78
2021/08/17 06:37:29;;;;;;;11.60;7.25;;;16.10;68.10;;;;;;5075787;28;20268;-78
2021/08/17 06:39:56;;;;;;;12.43;7.35;;;16.00;68.60;;;;;;5072180;28;20212;-78
2021/08/17 06:42:23;;;;;;;10.85;7.03;;;15.90;69.40;;;;;;5067404;28;20208;-78
2021/08/17 06:44:50;;;;;;;11.35;7.45;;;15.90;69.30;;;;;;5076600;28;20204;-77
2021/08/17 06:47:17;;;;;;;11.45;7.35;;;15.70;71.00;;;;;;5071766;28;20225;-78
2021/08/17 06:49:44;;;;;;;12.47;7.73;;;15.60;71.10;;;;;;5068068;28;20235;-77
2021/08/17 06:52:11;;;;;;;11.93;7.25;;;15.80;72.00;;;;;;5059593;28;20943;-77
2021/08/17 06:54:39;;;;;;;11.98;6.43;;;15.90;71.80;;;;;;5059408;28;20291;-76
2021/08/17 06:57:06;;;;;;;11.85;6.88;;;15.90;70.80;;;;;;5056763;28;20664;-76
2021/08/17 06:59:33;;;;;;;11.32;7.10;;;15.90;70.70;;;;;;5055707;28;20219;-77
2021/08/17 07:02:00;;;;;;;12.50;7.43;;;16.00;70.10;;;;;;5060942;28;20277;-77
2021/08/17 07:04:27;;;;;;;11.70;7.22;;;16.10;68.70;;;;;;5058063;28;20504;-77
2021/08/17 07:06:54;;;;;;;10.23;7.40;;;16.10;69.10;;;;;;5054472;28;20320;-78
2021/08/17 07:09:21;;;;;;;11.60;7.83;;;16.20;69.10;;;;;;5053280;28;20304;-77
2021/08/17 07:11:49;;;;;;;10.65;8.07;;;16.30;68.10;;;;;;5053642;28;20430;-77
2021/08/17 07:14:16;;;;;;;12.13;7.83;;;16.60;68.00;;;;;;5054793;28;20239;-77
2021/08/17 07:16:43;;;;;;;12.37;7.80;;;16.80;66.10;;;;;;5064216;28;20467;-78
2021/08/17 07:19:09;;;;;;;15.30;8.70;;;17.10;65.10;;;;;;5077187;28;20436;-77
2021/08/17 07:21:36;;;;;;;11.40;8.40;;;17.30;63.20;;;;;;5077447;28;20467;-77
2021/08/17 07:24:03;;;;;;;10.70;8.10;;;17.40;62.50;;;;;;5074984;28;20460;-77
2021/08/17 07:26:31;;;;;;;11.50;7.90;;;17.70;61.10;;;;;;5054443;28;20535;-78
2021/08/17 07:28:59;;;;;;;13.43;9.00;;;17.80;60.90;;;;;;5053350;28;20448;-77
2021/08/17 07:31:26;;;;;;;15.33;8.87;;;17.80;59.30;;;;;;5053527;28;20488;-78
2021/08/17 07:33:53;;;;;;;12.87;8.60;;;17.80;59.90;;;;;;5054851;28;20453;-77
2021/08/17 07:36:20;;;;;;;13.70;9.27;;;17.60;58.10;;;;;;5057289;28;20982;-77
2021/08/17 07:38:47;;;;;;;13.67;8.60;;;17.70;59.60;;;;;;5056665;28;21032;-77
2021/08/17 07:41:14;;;;;;;14.23;8.97;;;17.90;58.80;;;;;;5056775;28;20427;-77
2021/08/17 07:43:41;;;;;;;13.17;9.00;;;18.10;56.80;;;;;;5055551;28;20933;-77
2021/08/17 07:46:09;;;;;;;13.93;9.40;;;18.20;56.90;;;;;;5055607;28;20476;-77
2021/08/17 07:48:36;;;;;;;13.33;9.20;;;18.20;56.40;;;;;;5055202;28;20420;-76
2021/08/17 07:51:03;;;;;;;12.70;8.40;;;17.90;56.60;;;;;;5054533;28;20466;-77
2021/08/17 07:53:30;;;;;;;13.90;9.70;;;17.50;56.30;;;;;;5054235;28;20495;-77
2021/08/17 07:55:58;;;;;;;13.57;9.10;;;17.60;56.40;;;;;;5055882;28;20551;-78
2021/08/17 07:58:25;;;;;;;16.17;9.43;;;17.50;54.60;;;;;;5054144;28;20465;-77
2021/08/17 08:00:52;;;;;;;15.83;9.70;;;17.70;56.40;;;;;;5052604;28;20460;-77
2021/08/17 08:03:21;;;;;;;14.47;9.37;;;18.00;54.10;;;;;;5054245;28;20517;-78
2021/08/17 08:05:48;;;;;;;18.50;9.37;;;18.40;52.20;;;;;;5053656;28;20546;-77
2021/08/17 08:08:14;;;;;;;14.67;9.57;;;18.50;51.70;;;;;;5053376;28;20476;-78
2021/08/17 08:10:42;;;;;;;13.53;9.00;;;18.40;51.00;;;;;;5053261;28;20535;-77
2021/08/17 08:13:09;;;;;;;11.43;7.40;;;18.40;50.70;;;;;;5053103;28;20423;-77
2021/08/17 08:15:36;;;;;;;13.70;8.30;;;18.40;49.20;;;;;;5052881;28;20504;-77
2021/08/17 08:18:03;;;;;;;11.70;7.93;;;18.30;48.50;;;;;;5054521;28;20496;-77
2021/08/17 08:20:31;;;;;;;12.50;7.90;;;18.30;48.40;;;;;;5054222;28;20644;-77
2021/08/17 08:22:58;;;;;;;8.60;6.60;;;18.50;47.80;;;;;;5053449;28;20480;-77
2021/08/17 08:25:26;;;;;;;17.27;7.97;;;18.30;47.30;;;;;;5054333;28;20485;-78
2021/08/17 08:27:53;;;;;;;10.10;7.17;;;18.40;46.10;;;;;;5054569;28;20437;-77
2021/08/17 08:30:20;;;;;;;9.20;6.73;;;18.30;47.00;;;;;;5053523;28;20541;-78
2021/08/17 08:32:49;;;;;;;10.13;7.47;;;18.40;46.00;;;;;;5052857;28;20492;-78
2021/08/17 08:35:16;;;;;;;9.73;6.37;;;18.30;44.80;;;;;;5052222;28;20505;-78
2021/08/17 08:37:45;;;;;;;11.40;6.90;;;18.40;45.80;;;;;;5093882;22;20562;-82
2021/08/17 08:40:14;;;;;;;11.47;7.83;;;18.30;46.00;;;;;;5073005;28;20441;-82
2021/08/17 08:42:41;;;;;;;10.43;7.37;;;18.30;47.30;;;;;;5074754;28;20516;-82
2021/08/17 08:45:09;;;;;;;9.70;7.30;;;18.50;47.50;;;;;;5076636;28;20483;-82
2021/08/17 08:47:45;;;;;;;9.97;6.90;;;18.70;45.40;;;;;;5074006;28;20476;-84
2021/08/17 08:50:14;;;;;;;10.20;7.70;;;18.60;45.10;;;;;;5078970;28;20463;-82
2021/08/17 08:55:24;;;;;;;10.63;7.47;;;18.50;46.60;;;;;;5145567;22;20795;-84
2021/08/17 09:00:24;;;;;;;10.00;7.03;;;18.50;45.50;;;;;;5077823;22;20503;-83
2021/08/17 09:02:51;;;;;;;11.90;8.10;;;18.70;45.20;;;;;;5662318;22;20520;-83
2021/08/17 09:07:52;;;;;;;8.50;5.97;;;19.00;44.70;;;;;;5491247;22;20491;-83
2021/08/17 09:10:20;;;;;;;9.33;6.50;;;19.20;43.10;;;;;;5079786;28;20434;-84
2021/08/17 09:12:51;;;;;;;8.93;6.73;;;19.50;42.00;;;;;;5080184;28;20480;-83
2021/08/17 09:15:19;;;;;;;11.33;7.37;;;19.40;42.40;;;;;;5080242;28;20422;-83
2021/08/17 09:17:58;;;;;;;9.40;7.10;;;19.70;42.10;;;;;;5079908;28;20450;-83
2021/08/17 09:20:32;;;;;;;10.87;7.27;;;19.70;40.90;;;;;;5080196;28;20424;-83
2021/08/17 09:23:18;;;;;;;10.20;7.43;;;19.60;41.20;;;;;;5084434;22;20468;-79
2021/08/17 09:25:45;;;;;;;9.60;6.57;;;19.60;41.70;;;;;;5056434;28;20497;-79
2021/08/17 09:28:30;;;;;;;7.93;5.97;;;19.70;42.00;;;;;;5056284;28;20454;-78
2021/08/17 09:31:00;;;;;;;9.40;6.73;;;20.00;41.60;;;;;;5056356;28;20504;-79
2021/08/17 09:33:36;;;;;;;13.93;7.77;;;19.90;41.70;;;;;;5057158;28;20450;-78
2021/08/17 09:36:04;;;;;;;9.50;7.13;;;19.90;41.00;;;;;;5056752;28;20545;-78
2021/08/17 09:38:32;;;;;;;10.97;7.40;;;19.80;42.10;;;;;;5055918;28;20494;-78
2021/08/17 09:41:00;;;;;;;10.67;7.30;;;19.60;42.60;;;;;;5057067;28;20481;-78
2021/08/17 09:43:28;;;;;;;9.87;7.20;;;19.40;41.90;;;;;;5056941;28;20928;-78
2021/08/17 09:45:55;;;;;;;12.00;7.20;;;19.10;42.20;;;;;;5058209;28;20552;-79
2021/08/17 09:48:30;;;;;;;8.57;6.20;;;18.60;44.30;;;;;;5056550;28;20488;-78
2021/08/17 09:50:57;;;;;;;13.63;8.20;;;18.50;45.30;;;;;;5075520;28;20432;-78
2021/08/17 09:53:24;;;;;;;9.90;7.10;;;18.50;44.80;;;;;;5072360;28;20480;-77
2021/08/17 09:55:53;;;;;;;9.90;7.20;;;18.70;44.70;;;;;;5070606;28;20459;-78
2021/08/17 09:58:25;;;;;;;9.47;7.13;;;18.90;44.90;;;;;;5077623;28;20494;-78
2021/08/17 10:00:55;;;;;;;8.30;6.67;;;19.30;43.60;;;;;;5071037;28;20514;-78
2021/08/17 10:03:23;;;;;;;8.30;6.60;;;19.60;42.70;;;;;;5056387;28;20975;-79
2021/08/17 10:05:51;;;;;;;10.77;6.63;;;19.80;41.70;;;;;;5056156;28;20442;-78
2021/08/17 10:08:19;;;;;;;8.63;6.60;;;19.70;38.90;;;;;;5056039;28;20481;-78
2021/08/17 10:10:47;;;;;;;9.67;6.90;;;19.50;38.70;;;;;;5056002;28;20967;-77
2021/08/17 10:13:17;;;;;;;7.80;6.27;;;19.60;39.10;;;;;;5054880;28;20454;-78
2021/08/17 10:15:46;;;;;;;11.10;7.07;;;19.40;40.40;;;;;;5055877;28;20529;-80
2021/08/17 10:18:16;;;;;;;8.50;6.50;;;19.60;39.80;;;;;;5056107;28;20524;-78
2021/08/17 10:20:45;;;;;;;11.00;7.73;;;19.60;39.40;;;;;;5056042;28;20568;-78
2021/08/17 10:23:16;;;;;;;7.97;5.60;;;19.50;40.50;;;;;;5058762;28;20504;-78
2021/08/17 10:25:45;;;;;;;8.67;6.77;;;19.70;40.20;;;;;;5057002;28;20434;-78
2021/08/17 10:28:29;;;;;;;9.40;7.53;;;19.90;39.80;;;;;;5056079;28;20451;-78
2021/08/17 10:30:57;;;;;;;10.83;6.70;;;20.40;40.10;;;;;;5055620;28;20459;-78
2021/08/17 10:33:42;;;;;;;12.17;7.67;;;20.80;38.40;;;;;;5056846;28;20461;-78
2021/08/17 10:36:09;;;;;;;9.40;6.30;;;21.20;37.50;;;;;;5062844;28;20983;-78
2021/08/17 10:38:46;;;;;;;8.53;5.93;;;21.60;36.10;;;;;;5060097;28;20517;-79
2021/08/17 10:41:13;;;;;;;8.70;6.77;;;21.60;35.80;;;;;;5058127;28;20455;-78
2021/08/17 10:44:15;;;;;;;10.03;7.37;;;21.60;36.70;;;;;;5063216;28;20961;-78
2021/08/17 10:46:55;;;;;;;10.10;7.63;;;21.80;36.00;;;;;;5063831;28;20519;-78
2021/08/17 10:49:32;;;;;;;8.37;6.97;;;21.80;36.00;;;;;;5066528;28;20449;-77
2021/08/17 10:52:00;;;;;;;7.63;5.87;;;21.40;38.00;;;;;;5074382;28;20461;-78
2021/08/17 10:54:33;;;;;;;9.10;5.63;;;21.10;33.50;;;;;;5075271;28;20456;-77
2021/08/17 10:57:18;;;;;;;7.20;5.07;;;20.50;31.80;;;;;;5075305;28;20436;-77
2021/08/17 10:59:47;;;;;;;9.07;6.10;;;19.90;33.40;;;;;;5072454;28;20478;-77
2021/08/17 11:02:15;;;;;;;6.73;6.03;;;19.80;35.00;;;;;;5072873;28;20494;-78
2021/08/17 11:04:45;;;;;;;6.73;6.00;;;20.00;36.00;;;;;;5072848;28;20454;-77
2021/08/17 11:07:27;;;;;;;6.70;5.80;;;20.30;35.70;;;;;;5071487;28;20545;-78
2021/08/17 11:09:56;;;;;;;7.43;5.10;;;20.50;34.40;;;;;;5070837;28;20441;-77
2021/08/17 11:12:31;;;;;;;6.53;5.30;;;20.70;33.20;;;;;;5073211;28;20440;-78
2021/08/17 11:14:58;;;;;;;7.60;5.70;;;20.60;32.10;;;;;;5071433;28;20990;-78
2021/08/17 11:17:25;;;;;;;7.40;4.47;;;20.50;31.60;;;;;;5063948;28;21004;-78
2021/08/17 11:19:55;;;;;;;6.20;4.90;;;20.30;29.10;;;;;;5068886;28;20514;-77
2021/08/17 11:22:25;;;;;;;7.77;5.53;;;20.40;30.20;;;;;;5071299;28;20494;-78
2021/08/17 11:24:53;;;;;;;7.80;4.90;;;20.50;32.00;;;;;;5062178;28;20531;-77
2021/08/17 11:27:23;;;;;;;6.23;4.30;;;20.60;31.80;;;;;;5060114;28;20438;-77
2021/08/17 11:29:51;;;;;;;4.57;4.00;;;21.00;29.70;;;;;;5056048;28;20451;-78
2021/08/17 11:32:28;;;;;;;4.37;3.70;;;21.20;28.10;;;;;;5059800;28;20478;-77
2021/08/17 11:34:56;;;;;;;3.90;3.50;;;21.20;28.70;;;;;;5056998;28;20492;-77
2021/08/17 11:37:23;;;;;;;4.33;3.70;;;21.30;27.00;;;;;;5059072;28;20474;-78
2021/08/17 11:39:52;;;;;;;5.20;4.30;;;21.20;26.80;;;;;;5065796;28;20840;-78
2021/08/17 11:42:22;;;;;;;6.90;5.30;;;21.00;27.30;;;;;;5058247;28;20480;-78
2021/08/17 11:44:51;;;;;;;5.57;4.77;;;20.90;28.00;;;;;;5054879;28;20484;-77
2021/08/17 11:47:20;;;;;;;4.30;3.90;;;21.10;26.40;;;;;;5054308;28;20492;-78
2021/08/17 11:49:48;;;;;;;8.07;5.90;;;21.00;28.40;;;;;;5054015;28;20448;-78
2021/08/17 11:52:18;;;;;;;7.13;5.63;;;21.20;29.80;;;;;;5055441;28;20488;-78
2021/08/17 11:54:51;;;;;;;4.93;4.17;;;21.40;28.70;;;;;;5053724;28;20480;-78
2021/08/17 11:57:21;;;;;;;5.60;4.63;;;21.70;27.80;;;;;;5056869;28;20960;-78
2021/08/17 11:59:50;;;;;;;6.10;4.63;;;21.90;27.60;;;;;;5054829;28;20524;-78
2021/08/17 12:02:22;;;;;;;6.70;5.63;;;21.70;27.80;;;;;;5056348;28;20448;-77
2021/08/17 12:04:51;;;;;;;6.27;5.30;;;21.40;28.30;;;;;;5056978;28;20428;-78
2021/08/17 12:07:20;;;;;;;6.00;4.80;;;21.40;29.90;;;;;;5057901;28;20457;-78
2021/08/17 12:09:48;;;;;;;7.47;5.60;;;21.20;29.70;;;;;;5056925;28;20473;-79
2021/08/17 12:12:17;;;;;;;6.50;5.37;;;21.20;29.80;;;;;;5059977;28;20500;-78
2021/08/17 12:14:46;;;;;;;6.17;4.37;;;21.00;30.20;;;;;;5061773;28;20512;-79
2021/08/17 12:17:21;;;;;;;11.30;5.27;;;21.20;29.80;;;;;;5065654;28;20492;-77
2021/08/17 12:19:50;;;;;;;6.10;5.17;;;21.20;29.80;;;;;;5060206;28;20486;-78
2021/08/17 12:22:27;;;;;;;6.83;5.00;;;21.40;29.90;;;;;;5060470;28;20495;-78
2021/08/17 12:24:55;;;;;;;10.93;5.23;;;21.80;28.90;;;;;;5064906;28;20439;-77
2021/08/17 12:27:25;;;;;;;6.83;4.60;;;21.90;28.20;;;;;;5062081;28;20818;-78
2021/08/17 12:29:53;;;;;;;6.43;5.10;;;22.00;28.20;;;;;;5059476;28;20416;-78
2021/08/17 12:32:21;;;;;;;5.10;4.50;;;22.30;27.70;;;;;;5060667;28;20592;-79
2021/08/17 12:34:50;;;;;;;6.30;4.93;;;22.60;26.80;;;;;;5062886;28;20506;-77
2021/08/17 12:37:36;;;;;;;7.10;4.17;;;22.60;26.80;;;;;;5079804;28;20471;-77
2021/08/17 12:40:04;;;;;;;5.80;5.13;;;23.10;26.60;;;;;;5080248;28;20556;-76
2021/08/17 12:42:39;;;;;;;6.40;5.27;;;23.50;25.70;;;;;;5080386;28;20478;-78
2021/08/17 12:45:06;;;;;;;7.67;5.83;;;23.00;27.00;;;;;;5080703;28;20512;-78
2021/08/17 12:47:33;;;;;;;7.50;5.43;;;22.70;27.10;;;;;;5080362;28;20433;-77
2021/08/17 12:50:03;;;;;;;6.10;4.70;;;22.80;26.70;;;;;;5078195;28;20483;-79
2021/08/17 12:52:34;;;;;;;8.53;5.20;;;22.80;26.80;;;;;;5062866;28;20474;-78
2021/08/17 12:55:08;;;;;;;8.80;5.97;;;23.00;26.70;;;;;;5061187;28;20455;-78
2021/08/17 12:57:38;;;;;;;6.80;5.37;;;22.80;26.60;;;;;;5062083;28;20453;-77